sensor_id;sensor_type;location;lat;lon;timestamp;pressure;altitude;pressure_sealevel;temperature;humidity
65394;BME280;52002;49.760;6.512;2023-05-07T00:01:49;99966.97;;;13.37;72.18
65394;BME280;52002;49.760;6.512;2023-05-07T00:04:15;99961.77;;;13.32;72.14
65394;BME280;52002;49.760;6.512;2023-05-07T00:06:40;99960.29;;;13.29;72.19
65394;BME280;52002;49.760;6.512;2023-05-07T00:09:06;99961.04;;;13.27;72.28
65394;BME280;52002;49.760;6.512;2023-05-07T00:11:32;99965.98;;;13.25;72.29
65394;BME280;52002;49.760;6.512;2023-05-07T00:13:58;99965.04;;;13.20;72.16
65394;BME280;52002;49.760;6.512;2023-05-07T00:16:23;99963.85;;;13.14;72.28
65394;BME280;52002;49.760;6.512;2023-05-07T00:18:49;99961.84;;;13.09;72.33
65394;BME280;52002;49.760;6.512;2023-05-07T00:21:15;99957.64;;;13.05;72.40
65394;BME280;52002;49.760;6.512;2023-05-07T00:23:41;99956.02;;;13.00;72.40
65394;BME280;52002;49.760;6.512;2023-05-07T00:26:06;99949.77;;;12.93;72.54
65394;BME280;52002;49.760;6.512;2023-05-07T00:28:31;99949.95;;;12.88;72.67
65394;BME280;52002;49.760;6.512;2023-05-07T00:30:57;99950.37;;;12.86;72.96
65394;BME280;52002;49.760;6.512;2023-05-07T00:33:22;99954.72;;;12.86;73.11
65394;BME280;52002;49.760;6.512;2023-05-07T00:35:48;99952.74;;;12.86;73.21
65394;BME280;52002;49.760;6.512;2023-05-07T00:38:14;99947.88;;;12.86;73.23
65394;BME280;52002;49.760;6.512;2023-05-07T00:40:40;99945.00;;;12.86;73.25
65394;BME280;52002;49.760;6.512;2023-05-07T00:43:06;99943.83;;;12.85;73.07
65394;BME280;52002;49.760;6.512;2023-05-07T00:45:33;99938.02;;;12.79;73.22
65394;BME280;52002;49.760;6.512;2023-05-07T00:48:02;99944.73;;;12.77;73.13
65394;BME280;52002;49.760;6.512;2023-05-07T00:50:28;99943.58;;;12.70;73.05
65394;BME280;52002;49.760;6.512;2023-05-07T00:52:55;99943.21;;;12.63;72.96
65394;BME280;52002;49.760;6.512;2023-05-07T00:55:22;99940.27;;;12.60;73.10
65394;BME280;52002;49.760;6.512;2023-05-07T00:57:49;99939.84;;;12.57;73.31
65394;BME280;52002;49.760;6.512;2023-05-07T01:00:15;99948.64;;;12.53;73.18
65394;BME280;52002;49.760;6.512;2023-05-07T01:02:41;99949.04;;;12.51;73.11
65394;BME280;52002;49.760;6.512;2023-05-07T01:05:10;99947.36;;;12.46;73.13
65394;BME280;52002;49.760;6.512;2023-05-07T01:07:37;99947.55;;;12.42;73.21
65394;BME280;52002;49.760;6.512;2023-05-07T01:10:05;99944.86;;;12.39;73.14
65394;BME280;52002;49.760;6.512;2023-05-07T01:12:32;99942.39;;;12.35;73.32
65394;BME280;52002;49.760;6.512;2023-05-07T01:14:58;99940.15;;;12.34;73.38
65394;BME280;52002;49.760;6.512;2023-05-07T01:17:23;99942.08;;;12.30;73.23
65394;BME280;52002;49.760;6.512;2023-05-07T01:19:49;99940.14;;;12.26;73.22
65394;BME280;52002;49.760;6.512;2023-05-07T01:22:16;99936.02;;;12.23;73.19
65394;BME280;52002;49.760;6.512;2023-05-07T01:24:45;99934.00;;;12.20;73.31
65394;BME280;52002;49.760;6.512;2023-05-07T01:27:11;99933.81;;;12.16;73.46
65394;BME280;52002;49.760;6.512;2023-05-07T01:29:36;99934.20;;;12.14;73.65
65394;BME280;52002;49.760;6.512;2023-05-07T01:32:02;99935.33;;;12.10;73.69
65394;BME280;52002;49.760;6.512;2023-05-07T01:34:31;99936.83;;;12.07;73.62
65394;BME280;52002;49.760;6.512;2023-05-07T01:36:58;99939.85;;;12.05;73.78
65394;BME280;52002;49.760;6.512;2023-05-07T01:39:25;99937.43;;;12.05;73.86
65394;BME280;52002;49.760;6.512;2023-05-07T01:41:54;99931.45;;;12.02;73.61
65394;BME280;52002;49.760;6.512;2023-05-07T01:44:21;99928.48;;;12.01;73.66
65394;BME280;52002;49.760;6.512;2023-05-07T01:46:47;99933.61;;;12.02;73.58
65394;BME280;52002;49.760;6.512;2023-05-07T01:49:14;99932.72;;;11.95;73.38
65394;BME280;52002;49.760;6.512;2023-05-07T01:51:41;99937.30;;;11.85;73.69
65394;BME280;52002;49.760;6.512;2023-05-07T01:54:06;99939.38;;;11.80;73.83
65394;BME280;52002;49.760;6.512;2023-05-07T01:56:33;99943.69;;;11.79;73.91
65394;BME280;52002;49.760;6.512;2023-05-07T01:58:59;99941.34;;;11.80;73.88
65394;BME280;52002;49.760;6.512;2023-05-07T02:01:24;99941.52;;;11.76;73.92
65394;BME280;52002;49.760;6.512;2023-05-07T02:03:49;99942.90;;;11.73;73.85
65394;BME280;52002;49.760;6.512;2023-05-07T02:06:15;99939.36;;;11.69;73.94
65394;BME280;52002;49.760;6.512;2023-05-07T02:08:40;99941.73;;;11.64;74.01
65394;BME280;52002;49.760;6.512;2023-05-07T02:11:06;99939.54;;;11.59;74.11
65394;BME280;52002;49.760;6.512;2023-05-07T02:13:32;99943.67;;;11.59;74.08
65394;BME280;52002;49.760;6.512;2023-05-07T02:15:58;99943.17;;;11.54;74.29
65394;BME280;52002;49.760;6.512;2023-05-07T02:18:24;99948.02;;;11.54;74.33
65394;BME280;52002;49.760;6.512;2023-05-07T02:20:50;99943.04;;;11.56;74.29
65394;BME280;52002;49.760;6.512;2023-05-07T02:23:15;99944.33;;;11.58;74.06
65394;BME280;52002;49.760;6.512;2023-05-07T02:25:40;99944.02;;;11.57;74.05
65394;BME280;52002;49.760;6.512;2023-05-07T02:28:06;99946.09;;;11.55;74.11
65394;BME280;52002;49.760;6.512;2023-05-07T02:30:31;99953.90;;;11.52;74.10
65394;BME280;52002;49.760;6.512;2023-05-07T02:32:56;99952.17;;;11.48;74.18
65394;BME280;52002;49.760;6.512;2023-05-07T02:35:24;99950.11;;;11.45;74.14
65394;BME280;52002;49.760;6.512;2023-05-07T02:37:49;99950.77;;;11.38;74.31
65394;BME280;52002;49.760;6.512;2023-05-07T02:40:15;99952.08;;;11.35;74.48
65394;BME280;52002;49.760;6.512;2023-05-07T02:42:40;99953.17;;;11.35;74.42
65394;BME280;52002;49.760;6.512;2023-05-07T02:45:06;99950.95;;;11.36;74.63
65394;BME280;52002;49.760;6.512;2023-05-07T02:47:32;99954.64;;;11.34;74.43
65394;BME280;52002;49.760;6.512;2023-05-07T02:49:58;99955.90;;;11.32;74.55
65394;BME280;52002;49.760;6.512;2023-05-07T02:52:23;99956.98;;;11.32;74.57
65394;BME280;52002;49.760;6.512;2023-05-07T02:54:48;99954.21;;;11.33;74.64
65394;BME280;52002;49.760;6.512;2023-05-07T02:57:14;99952.91;;;11.30;74.69
65394;BME280;52002;49.760;6.512;2023-05-07T02:59:40;99949.21;;;11.30;74.75
65394;BME280;52002;49.760;6.512;2023-05-07T03:02:05;99945.24;;;11.28;74.61
65394;BME280;52002;49.760;6.512;2023-05-07T03:04:30;99944.29;;;11.29;74.28
65394;BME280;52002;49.760;6.512;2023-05-07T03:06:56;99939.03;;;11.28;74.41
65394;BME280;52002;49.760;6.512;2023-05-07T03:09:21;99937.11;;;11.26;74.16
65394;BME280;52002;49.760;6.512;2023-05-07T03:11:47;99939.41;;;11.24;74.30
65394;BME280;52002;49.760;6.512;2023-05-07T03:14:12;99938.81;;;11.17;74.20
65394;BME280;52002;49.760;6.512;2023-05-07T03:16:38;99941.55;;;11.16;74.49
65394;BME280;52002;49.760;6.512;2023-05-07T03:19:03;99938.86;;;11.14;74.56
65394;BME280;52002;49.760;6.512;2023-05-07T03:21:29;99939.30;;;11.12;74.44
65394;BME280;52002;49.760;6.512;2023-05-07T03:23:56;99935.29;;;11.09;74.46
65394;BME280;52002;49.760;6.512;2023-05-07T03:26:21;99936.54;;;11.06;74.47
65394;BME280;52002;49.760;6.512;2023-05-07T03:28:47;99939.04;;;11.06;74.31
65394;BME280;52002;49.760;6.512;2023-05-07T03:31:12;99935.23;;;11.07;74.50
65394;BME280;52002;49.760;6.512;2023-05-07T03:33:50;99934.05;;;11.08;74.55
65394;BME280;52002;49.760;6.512;2023-05-07T03:36:16;99935.91;;;11.10;74.64
65394;BME280;52002;49.760;6.512;2023-05-07T03:38:41;99931.73;;;11.11;74.41
65394;BME280;52002;49.760;6.512;2023-05-07T03:41:06;99930.56;;;11.08;74.24
65394;BME280;52002;49.760;6.512;2023-05-07T03:43:31;99929.77;;;11.05;74.12
65394;BME280;52002;49.760;6.512;2023-05-07T03:45:57;99926.98;;;11.02;73.97
65394;BME280;52002;49.760;6.512;2023-05-07T03:48:22;99933.21;;;11.00;73.90
65394;BME280;52002;49.760;6.512;2023-05-07T03:50:48;99937.63;;;10.99;73.96
65394;BME280;52002;49.760;6.512;2023-05-07T03:53:13;99936.49;;;10.99;74.33
65394;BME280;52002;49.760;6.512;2023-05-07T03:55:38;99934.66;;;10.98;74.55
65394;BME280;52002;49.760;6.512;2023-05-07T03:58:04;99937.31;;;10.94;74.63
65394;BME280;52002;49.760;6.512;2023-05-07T04:00:29;99936.97;;;10.94;74.63
65394;BME280;52002;49.760;6.512;2023-05-07T04:02:58;99931.06;;;10.94;74.70
65394;BME280;52002;49.760;6.512;2023-05-07T04:05:24;99933.31;;;10.95;74.91
65394;BME280;52002;49.760;6.512;2023-05-07T04:07:50;99930.65;;;10.97;74.98
65394;BME280;52002;49.760;6.512;2023-05-07T04:10:15;99932.79;;;10.99;74.96
65394;BME280;52002;49.760;6.512;2023-05-07T04:12:40;99927.95;;;11.01;74.81
65394;BME280;52002;49.760;6.512;2023-05-07T04:15:06;99930.02;;;11.02;74.60
65394;BME280;52002;49.760;6.512;2023-05-07T04:17:32;99932.02;;;11.03;74.61
65394;BME280;52002;49.760;6.512;2023-05-07T04:19:57;99934.92;;;11.03;74.60
65394;BME280;52002;49.760;6.512;2023-05-07T04:22:22;99937.09;;;11.02;74.55
65394;BME280;52002;49.760;6.512;2023-05-07T04:24:48;99941.47;;;11.05;74.51
65394;BME280;52002;49.760;6.512;2023-05-07T04:27:13;99939.94;;;11.08;74.47
65394;BME280;52002;49.760;6.512;2023-05-07T04:29:38;99936.02;;;11.06;74.42
65394;BME280;52002;49.760;6.512;2023-05-07T04:32:08;99935.71;;;11.08;74.40
65394;BME280;52002;49.760;6.512;2023-05-07T04:34:34;99938.90;;;11.14;74.69
65394;BME280;52002;49.760;6.512;2023-05-07T04:36:59;99937.38;;;11.21;74.28
65394;BME280;52002;49.760;6.512;2023-05-07T04:39:25;99934.21;;;11.30;74.32
65394;BME280;52002;49.760;6.512;2023-05-07T04:41:51;99934.66;;;11.41;74.41
65394;BME280;52002;49.760;6.512;2023-05-07T04:44:16;99935.79;;;11.51;74.32
65394;BME280;52002;49.760;6.512;2023-05-07T04:46:42;99942.73;;;11.59;73.97
65394;BME280;52002;49.760;6.512;2023-05-07T04:49:07;99944.31;;;11.69;73.88
65394;BME280;52002;49.760;6.512;2023-05-07T04:51:32;99945.02;;;11.86;73.65
65394;BME280;52002;49.760;6.512;2023-05-07T04:53:58;99941.50;;;12.07;73.36
65394;BME280;52002;49.760;6.512;2023-05-07T04:56:23;99938.55;;;12.24;73.13
65394;BME280;52002;49.760;6.512;2023-05-07T04:58:48;99934.23;;;12.38;73.00
65394;BME280;52002;49.760;6.512;2023-05-07T05:01:14;99940.85;;;12.52;72.66
65394;BME280;52002;49.760;6.512;2023-05-07T05:03:40;99941.71;;;12.64;72.04
65394;BME280;52002;49.760;6.512;2023-05-07T05:06:06;99945.79;;;12.69;71.83
65394;BME280;52002;49.760;6.512;2023-05-07T05:08:31;99951.30;;;12.77;71.72
65394;BME280;52002;49.760;6.512;2023-05-07T05:10:56;99954.02;;;12.85;71.55
65394;BME280;52002;49.760;6.512;2023-05-07T05:13:22;99957.41;;;12.95;71.27
65394;BME280;52002;49.760;6.512;2023-05-07T05:15:47;99953.20;;;13.03;70.92
65394;BME280;52002;49.760;6.512;2023-05-07T05:18:13;99956.71;;;13.14;70.96
65394;BME280;52002;49.760;6.512;2023-05-07T05:20:38;99953.38;;;13.24;70.75
65394;BME280;52002;49.760;6.512;2023-05-07T05:23:04;99955.06;;;13.38;70.52
65394;BME280;52002;49.760;6.512;2023-05-07T05:25:29;99957.06;;;13.56;70.33
65394;BME280;52002;49.760;6.512;2023-05-07T05:27:54;99960.46;;;13.75;70.09
65394;BME280;52002;49.760;6.512;2023-05-07T05:30:20;99960.08;;;13.91;69.44
65394;BME280;52002;49.760;6.512;2023-05-07T05:32:45;99963.95;;;13.99;69.08
65394;BME280;52002;49.760;6.512;2023-05-07T05:35:11;99963.19;;;14.02;68.90
65394;BME280;52002;49.760;6.512;2023-05-07T05:37:36;99964.03;;;14.08;68.65
65394;BME280;52002;49.760;6.512;2023-05-07T05:40:02;99960.47;;;14.23;68.47
65394;BME280;52002;49.760;6.512;2023-05-07T05:42:27;99958.65;;;14.75;67.64
65394;BME280;52002;49.760;6.512;2023-05-07T05:44:52;99957.55;;;15.53;66.56
65394;BME280;52002;49.760;6.512;2023-05-07T05:47:18;99958.63;;;16.29;65.44
65394;BME280;52002;49.760;6.512;2023-05-07T05:49:43;99959.00;;;16.93;64.58
65394;BME280;52002;49.760;6.512;2023-05-07T05:52:09;99963.04;;;18.49;61.84
65394;BME280;52002;49.760;6.512;2023-05-07T05:54:35;99962.27;;;19.68;59.64
65394;BME280;52002;49.760;6.512;2023-05-07T05:57:00;99959.85;;;20.58;57.50
65394;BME280;52002;49.760;6.512;2023-05-07T05:59:29;99965.73;;;21.10;56.16
65394;BME280;52002;49.760;6.512;2023-05-07T06:01:55;99967.20;;;21.76;55.00
65394;BME280;52002;49.760;6.512;2023-05-07T06:04:20;99972.79;;;22.23;53.71
65394;BME280;52002;49.760;6.512;2023-05-07T06:06:45;99973.85;;;21.91;53.25
65394;BME280;52002;49.760;6.512;2023-05-07T06:09:11;99970.09;;;21.33;53.51
65394;BME280;52002;49.760;6.512;2023-05-07T06:11:36;99971.65;;;20.70;53.72
65394;BME280;52002;49.760;6.512;2023-05-07T06:14:02;99969.46;;;20.14;54.25
65394;BME280;52002;49.760;6.512;2023-05-07T06:16:27;99974.42;;;19.88;54.96
65394;BME280;52002;49.760;6.512;2023-05-07T06:18:53;99975.31;;;19.78;55.21
65394;BME280;52002;49.760;6.512;2023-05-07T06:21:18;99983.75;;;19.77;55.05
65394;BME280;52002;49.760;6.512;2023-05-07T06:23:43;99987.36;;;19.70;55.15
65394;BME280;52002;49.760;6.512;2023-05-07T06:26:09;99987.95;;;19.24;55.33
65394;BME280;52002;49.760;6.512;2023-05-07T06:28:34;99997.14;;;18.69;55.93
65394;BME280;52002;49.760;6.512;2023-05-07T06:33:39;99999.95;;;17.64;57.77
65394;BME280;52002;49.760;6.512;2023-05-07T06:36:05;100002.39;;;17.35;58.89
65394;BME280;52002;49.760;6.512;2023-05-07T06:38:30;100006.77;;;17.14;59.44
65394;BME280;52002;49.760;6.512;2023-05-07T06:40:55;100007.56;;;17.00;60.14
65394;BME280;52002;49.760;6.512;2023-05-07T06:43:22;100004.30;;;16.84;60.41
65394;BME280;52002;49.760;6.512;2023-05-07T06:45:47;100007.13;;;16.72;60.90
65394;BME280;52002;49.760;6.512;2023-05-07T06:48:13;100011.58;;;16.68;61.41
65394;BME280;52002;49.760;6.512;2023-05-07T06:50:38;100007.10;;;16.64;61.72
65394;BME280;52002;49.760;6.512;2023-05-07T06:53:04;100008.55;;;16.64;61.83
65394;BME280;52002;49.760;6.512;2023-05-07T06:55:29;100006.69;;;16.68;62.06
65394;BME280;52002;49.760;6.512;2023-05-07T06:57:54;100004.24;;;16.77;62.25
65394;BME280;52002;49.760;6.512;2023-05-07T07:00:20;100004.27;;;16.78;62.19
65394;BME280;52002;49.760;6.512;2023-05-07T07:02:45;100003.11;;;16.87;62.29
65394;BME280;52002;49.760;6.512;2023-05-07T07:05:10;100004.45;;;17.02;62.12
65394;BME280;52002;49.760;6.512;2023-05-07T07:07:36;99997.57;;;17.35;61.81
65394;BME280;52002;49.760;6.512;2023-05-07T07:10:01;100000.52;;;17.81;61.62
65394;BME280;52002;49.760;6.512;2023-05-07T07:12:29;99997.02;;;18.32;61.05
65394;BME280;52002;49.760;6.512;2023-05-07T07:14:55;99995.02;;;18.95;60.11
65394;BME280;52002;49.760;6.512;2023-05-07T07:17:20;99992.91;;;19.87;58.65
65394;BME280;52002;49.760;6.512;2023-05-07T07:19:46;99988.88;;;20.65;57.08
65394;BME280;52002;49.760;6.512;2023-05-07T07:22:11;99987.58;;;21.05;56.37
65394;BME280;52002;49.760;6.512;2023-05-07T07:24:36;99985.48;;;21.05;55.62
65394;BME280;52002;49.760;6.512;2023-05-07T07:27:02;99980.85;;;20.84;55.54
65394;BME280;52002;49.760;6.512;2023-05-07T07:29:27;99984.06;;;20.64;55.85
65394;BME280;52002;49.760;6.512;2023-05-07T07:31:53;99986.70;;;20.54;55.66
65394;BME280;52002;49.760;6.512;2023-05-07T07:34:19;99986.08;;;20.28;55.58
65394;BME280;52002;49.760;6.512;2023-05-07T07:36:44;99984.85;;;20.16;56.20
65394;BME280;52002;49.760;6.512;2023-05-07T07:39:10;99980.44;;;20.17;56.38
65394;BME280;52002;49.760;6.512;2023-05-07T07:41:35;99979.61;;;20.25;56.03
65394;BME280;52002;49.760;6.512;2023-05-07T07:44:00;99977.89;;;20.31;55.55
65394;BME280;52002;49.760;6.512;2023-05-07T07:46:26;99976.15;;;20.44;55.32
65394;BME280;52002;49.760;6.512;2023-05-07T07:48:51;99974.95;;;20.68;55.02
65394;BME280;52002;49.760;6.512;2023-05-07T07:51:17;99982.75;;;21.15;54.70
65394;BME280;52002;49.760;6.512;2023-05-07T07:53:42;99979.56;;;21.55;54.34
65394;BME280;52002;49.760;6.512;2023-05-07T07:56:08;99982.14;;;21.79;53.97
65394;BME280;52002;49.760;6.512;2023-05-07T07:58:34;99982.06;;;22.00;53.68
65394;BME280;52002;49.760;6.512;2023-05-07T08:01:00;99984.23;;;21.97;53.25
65394;BME280;52002;49.760;6.512;2023-05-07T08:03:26;99987.75;;;22.00;53.12
65394;BME280;52002;49.760;6.512;2023-05-07T08:05:52;99986.05;;;22.09;52.92
65394;BME280;52002;49.760;6.512;2023-05-07T08:08:18;99984.36;;;22.28;52.24
65394;BME280;52002;49.760;6.512;2023-05-07T08:10:43;99984.14;;;22.62;51.82
65394;BME280;52002;49.760;6.512;2023-05-07T08:13:09;99985.73;;;22.97;51.51
65394;BME280;52002;49.760;6.512;2023-05-07T08:15:34;99987.98;;;22.88;51.15
65394;BME280;52002;49.760;6.512;2023-05-07T08:18:01;99991.69;;;22.74;51.64
65394;BME280;52002;49.760;6.512;2023-05-07T08:20:28;99995.02;;;22.62;51.53
65394;BME280;52002;49.760;6.512;2023-05-07T08:22:53;99993.99;;;22.55;51.57
65394;BME280;52002;49.760;6.512;2023-05-07T08:25:19;99993.90;;;22.60;51.58
65394;BME280;52002;49.760;6.512;2023-05-07T08:27:44;99999.04;;;22.71;51.76
65394;BME280;52002;49.760;6.512;2023-05-07T08:30:11;99998.90;;;22.78;51.41
65394;BME280;52002;49.760;6.512;2023-05-07T08:32:36;99999.02;;;22.72;51.17
65394;BME280;52002;49.760;6.512;2023-05-07T08:35:02;100003.72;;;22.59;51.20
65394;BME280;52002;49.760;6.512;2023-05-07T08:37:27;99999.39;;;22.46;51.50
65394;BME280;52002;49.760;6.512;2023-05-07T08:39:53;100003.81;;;22.40;51.72
65394;BME280;52002;49.760;6.512;2023-05-07T08:42:18;100000.31;;;22.46;51.58
65394;BME280;52002;49.760;6.512;2023-05-07T08:44:45;99997.80;;;22.53;51.82
65394;BME280;52002;49.760;6.512;2023-05-07T08:47:12;99998.04;;;22.58;51.69
65394;BME280;52002;49.760;6.512;2023-05-07T08:49:37;99995.92;;;22.60;51.59
65394;BME280;52002;49.760;6.512;2023-05-07T08:52:04;99996.71;;;22.67;51.76
65394;BME280;52002;49.760;6.512;2023-05-07T08:54:30;99995.06;;;22.71;51.83
65394;BME280;52002;49.760;6.512;2023-05-07T08:56:56;99989.80;;;22.77;52.09
65394;BME280;52002;49.760;6.512;2023-05-07T08:59:22;99990.15;;;22.80;51.82
65394;BME280;52002;49.760;6.512;2023-05-07T09:01:47;99988.40;;;22.80;51.65
65394;BME280;52002;49.760;6.512;2023-05-07T09:04:13;99989.91;;;22.79;51.54
65394;BME280;52002;49.760;6.512;2023-05-07T09:06:38;99988.08;;;22.85;51.32
65394;BME280;52002;49.760;6.512;2023-05-07T09:09:07;99990.76;;;22.90;51.27
65394;BME280;52002;49.760;6.512;2023-05-07T09:11:33;99992.67;;;22.93;51.11
65394;BME280;52002;49.760;6.512;2023-05-07T09:13:58;99986.18;;;22.99;51.49
65394;BME280;52002;49.760;6.512;2023-05-07T09:16:29;99987.16;;;23.10;51.45
65394;BME280;52002;49.760;6.512;2023-05-07T09:18:58;99990.39;;;23.17;51.36
65394;BME280;52002;49.760;6.512;2023-05-07T09:21:25;99989.45;;;23.22;51.53
65394;BME280;52002;49.760;6.512;2023-05-07T09:23:57;99989.02;;;23.29;51.79
65394;BME280;52002;49.760;6.512;2023-05-07T09:26:23;99989.52;;;23.32;51.60
65394;BME280;52002;49.760;6.512;2023-05-07T09:28:49;99985.88;;;23.30;51.42
65394;BME280;52002;49.760;6.512;2023-05-07T09:31:15;99986.06;;;23.27;51.29
65394;BME280;52002;49.760;6.512;2023-05-07T09:33:40;99983.89;;;23.22;50.99
65394;BME280;52002;49.760;6.512;2023-05-07T09:36:08;99983.34;;;23.25;51.11
65394;BME280;52002;49.760;6.512;2023-05-07T09:38:35;99985.36;;;23.26;50.66
65394;BME280;52002;49.760;6.512;2023-05-07T09:41:06;99988.08;;;23.25;50.67
65394;BME280;52002;49.760;6.512;2023-05-07T09:43:33;99987.41;;;23.25;50.64
65394;BME280;52002;49.760;6.512;2023-05-07T09:46:12;99989.77;;;23.29;50.42
65394;BME280;52002;49.760;6.512;2023-05-07T09:48:39;99991.89;;;23.26;50.62
65394;BME280;52002;49.760;6.512;2023-05-07T09:51:41;99989.50;;;23.27;50.37
65394;BME280;52002;49.760;6.512;2023-05-07T09:54:10;99992.30;;;23.29;49.83
65394;BME280;52002;49.760;6.512;2023-05-07T09:56:35;99989.81;;;23.38;49.77
65394;BME280;52002;49.760;6.512;2023-05-07T09:59:03;99983.84;;;23.44;49.66
65394;BME280;52002;49.760;6.512;2023-05-07T10:01:31;99985.11;;;23.46;48.86
65394;BME280;52002;49.760;6.512;2023-05-07T10:03:59;99986.34;;;23.47;49.04
65394;BME280;52002;49.760;6.512;2023-05-07T10:06:25;99983.48;;;23.52;49.00
65394;BME280;52002;49.760;6.512;2023-05-07T10:08:52;99981.06;;;23.56;48.44
65394;BME280;52002;49.760;6.512;2023-05-07T10:11:18;99978.44;;;23.58;48.26
65394;BME280;52002;49.760;6.512;2023-05-07T10:13:46;99975.83;;;23.63;48.74
65394;BME280;52002;49.760;6.512;2023-05-07T10:16:12;99974.99;;;23.68;48.84
65394;BME280;52002;49.760;6.512;2023-05-07T10:19:01;99968.98;;;23.74;48.73
65394;BME280;52002;49.760;6.512;2023-05-07T10:21:30;99965.42;;;23.91;48.39
65394;BME280;52002;49.760;6.512;2023-05-07T10:27:06;99961.44;;;24.43;47.14
65394;BME280;52002;49.760;6.512;2023-05-07T10:29:48;99963.36;;;24.70;46.96
65394;BME280;52002;49.760;6.512;2023-05-07T10:35:03;99968.52;;;24.87;46.33
65394;BME280;52002;49.760;6.512;2023-05-07T10:37:30;99973.04;;;24.96;46.41
65394;BME280;52002;49.760;6.512;2023-05-07T10:39:56;99974.88;;;24.95;46.30
65394;BME280;52002;49.760;6.512;2023-05-07T10:42:23;99973.28;;;24.86;45.93
65394;BME280;52002;49.760;6.512;2023-05-07T10:44:48;99972.51;;;24.72;45.87
65394;BME280;52002;49.760;6.512;2023-05-07T10:47:16;99973.54;;;24.58;45.54
65394;BME280;52002;49.760;6.512;2023-05-07T10:52:17;99965.62;;;24.27;45.58
65394;BME280;52002;49.760;6.512;2023-05-07T10:54:43;99966.54;;;24.13;45.74
65394;BME280;52002;49.760;6.512;2023-05-07T10:59:53;99966.10;;;24.00;46.58
65394;BME280;52002;49.760;6.512;2023-05-07T11:02:19;99965.33;;;23.95;46.62
65394;BME280;52002;49.760;6.512;2023-05-07T11:04:44;99963.95;;;23.91;47.09
65394;BME280;52002;49.760;6.512;2023-05-07T11:07:24;99964.48;;;23.89;46.88
65394;BME280;52002;49.760;6.512;2023-05-07T11:15:05;99965.12;;;23.76;46.90
65394;BME280;52002;49.760;6.512;2023-05-07T11:17:31;99962.80;;;23.71;46.76
65394;BME280;52002;49.760;6.512;2023-05-07T11:20:02;99961.65;;;23.69;46.98
65394;BME280;52002;49.760;6.512;2023-05-07T11:24:59;99963.84;;;23.75;47.17
65394;BME280;52002;49.760;6.512;2023-05-07T11:27:26;99962.44;;;23.83;47.19
65394;BME280;52002;49.760;6.512;2023-05-07T11:29:52;99964.45;;;23.90;47.13
65394;BME280;52002;49.760;6.512;2023-05-07T11:32:29;99965.78;;;24.02;46.72
65394;BME280;52002;49.760;6.512;2023-05-07T11:34:56;99963.73;;;24.12;46.68
65394;BME280;52002;49.760;6.512;2023-05-07T11:37:24;99963.16;;;24.23;46.55
65394;BME280;52002;49.760;6.512;2023-05-07T11:39:50;99962.86;;;24.26;46.74
65394;BME280;52002;49.760;6.512;2023-05-07T11:44:55;99955.88;;;24.45;46.74
65394;BME280;52002;49.760;6.512;2023-05-07T11:47:21;99952.73;;;24.49;46.34
65394;BME280;52002;49.760;6.512;2023-05-07T11:49:54;99956.55;;;24.55;46.59
65394;BME280;52002;49.760;6.512;2023-05-07T11:52:36;99960.86;;;24.64;46.39
65394;BME280;52002;49.760;6.512;2023-05-07T11:55:02;99960.27;;;24.69;46.47
65394;BME280;52002;49.760;6.512;2023-05-07T11:57:29;99960.19;;;24.76;46.03
65394;BME280;52002;49.760;6.512;2023-05-07T12:00:00;99956.73;;;24.83;46.29
65394;BME280;52002;49.760;6.512;2023-05-07T12:02:27;99955.64;;;24.92;46.25
65394;BME280;52002;49.760;6.512;2023-05-07T12:04:54;99959.20;;;24.97;46.13
65394;BME280;52002;49.760;6.512;2023-05-07T12:07:20;99958.98;;;24.98;45.95
65394;BME280;52002;49.760;6.512;2023-05-07T12:09:46;99962.72;;;25.04;46.15
65394;BME280;52002;49.760;6.512;2023-05-07T12:12:13;99960.80;;;25.10;45.88
65394;BME280;52002;49.760;6.512;2023-05-07T12:14:45;99961.81;;;25.09;45.81
65394;BME280;52002;49.760;6.512;2023-05-07T12:17:13;99965.83;;;25.12;45.67
65394;BME280;52002;49.760;6.512;2023-05-07T12:19:41;99966.84;;;25.14;45.29
65394;BME280;52002;49.760;6.512;2023-05-07T12:22:08;99966.60;;;25.11;45.03
65394;BME280;52002;49.760;6.512;2023-05-07T12:24:48;99966.42;;;25.04;44.99
65394;BME280;52002;49.760;6.512;2023-05-07T12:27:15;99966.52;;;25.01;45.26
65394;BME280;52002;49.760;6.512;2023-05-07T12:29:46;99963.38;;;24.96;45.22
65394;BME280;52002;49.760;6.512;2023-05-07T12:32:19;99963.74;;;24.92;45.20
65394;BME280;52002;49.760;6.512;2023-05-07T12:34:45;99962.73;;;24.94;45.53
65394;BME280;52002;49.760;6.512;2023-05-07T12:37:11;99961.14;;;24.94;45.51
65394;BME280;52002;49.760;6.512;2023-05-07T12:39:38;99960.05;;;24.96;45.17
65394;BME280;52002;49.760;6.512;2023-05-07T12:42:03;99960.27;;;24.96;45.26
65394;BME280;52002;49.760;6.512;2023-05-07T12:44:30;99959.27;;;24.98;45.29
65394;BME280;52002;49.760;6.512;2023-05-07T12:46:56;99961.46;;;25.02;45.11
65394;BME280;52002;49.760;6.512;2023-05-07T12:49:23;99960.81;;;25.03;45.32
65394;BME280;52002;49.760;6.512;2023-05-07T12:51:48;99962.27;;;25.01;45.22
65394;BME280;52002;49.760;6.512;2023-05-07T12:54:31;99961.17;;;24.93;44.88
65394;BME280;52002;49.760;6.512;2023-05-07T12:57:04;99961.50;;;24.78;44.89
65394;BME280;52002;49.760;6.512;2023-05-07T12:59:34;99961.61;;;24.65;45.06
65394;BME280;52002;49.760;6.512;2023-05-07T13:02:01;99963.52;;;24.55;45.26
65394;BME280;52002;49.760;6.512;2023-05-07T13:04:27;99965.67;;;24.43;45.50
65394;BME280;52002;49.760;6.512;2023-05-07T13:06:52;99967.08;;;24.28;45.46
65394;BME280;52002;49.760;6.512;2023-05-07T13:09:17;99972.11;;;24.14;45.89
65394;BME280;52002;49.760;6.512;2023-05-07T13:11:43;99968.83;;;24.00;45.88
65394;BME280;52002;49.760;6.512;2023-05-07T13:14:08;99971.30;;;23.85;46.01
65394;BME280;52002;49.760;6.512;2023-05-07T13:16:33;99973.91;;;23.71;46.31
65394;BME280;52002;49.760;6.512;2023-05-07T13:18:59;99970.15;;;23.57;46.61
65394;BME280;52002;49.760;6.512;2023-05-07T13:21:24;99975.65;;;23.45;46.94